Terminal Aerodrome Forecast
Issued by NWS

Home | Current Version | Previous Version | Text Only | Print | Product List | Glossary On
Versions: 1 2 3 4 5 6 7 8 9 10 11 12 13 14 15 16 17 18 19 20 21 22 23 24 25 26 27 28 29 30 31
000
FTUS45 KGJT 010520
TAFMTJ
TAF
KMTJ 010520Z 0106/0206 15007KT P6SM SCT150
     FM011200 15005KT P6SM SCT100 BKN140
     FM011800 35009KT P6SM VCSH BKN080
     FM012100 34010KT P6SM -RA BKN060 BKN100
     FM020200 15005KT P6SM VCSH SCT070 SCT150=

USA.gov is the U.S. government's official web portal to all federal, state and local government web resources and services.